Time;durP1;ratioP1;P1;durP2;ratioP2;P2;SDS_P1;SDS_P2;PMS_P1;PMS_P2;Temp;Humidity;BMP_temperature;BMP_pressure;BME280_temperature;BME280_humidity;BME280_pressure;Samples;Min_cycle;Max_cycle;Signal;HPM_P1;HPM_P2
2022/09/16 00:00:13;;;;;;;1.80;1.40;;;12.00;99.90;;;;;;5052807;28;20402;-67
2022/09/16 00:02:39;;;;;;;2.30;1.47;;;12.10;99.90;;;;;;5052817;28;20811;-67
2022/09/16 00:05:05;;;;;;;2.03;1.70;;;12.10;99.90;;;;;;5052359;28;20174;-67
2022/09/16 00:07:30;;;;;;;8.23;2.63;;;12.00;99.90;;;;;;5052836;28;20180;-67
2022/09/16 00:09:56;;;;;;;3.50;1.80;;;12.00;99.90;;;;;;5052329;28;20453;-67
2022/09/16 00:12:21;;;;;;;5.10;2.10;;;12.00;99.90;;;;;;5052584;28;20163;-67
2022/09/16 00:14:47;;;;;;;3.00;2.37;;;11.90;99.90;;;;;;5052353;28;20178;-66
2022/09/16 00:17:13;;;;;;;3.97;1.77;;;11.90;99.90;;;;;;5052461;28;20198;-66
2022/09/16 00:19:38;;;;;;;3.00;1.53;;;11.90;99.90;;;;;;5052343;28;20191;-66
2022/09/16 00:22:04;;;;;;;1.73;1.20;;;11.90;99.90;;;;;;5052344;28;20174;-66
2022/09/16 00:24:30;;;;;;;5.50;2.93;;;11.90;99.90;;;;;;5052396;28;20175;-66
2022/09/16 00:26:56;;;;;;;5.60;3.10;;;11.80;99.90;;;;;;5052184;28;20544;-66
2022/09/16 00:29:21;;;;;;;6.97;3.17;;;11.80;99.90;;;;;;5052249;28;20262;-66
2022/09/16 00:31:47;;;;;;;5.40;3.60;;;11.70;99.90;;;;;;5052310;28;20177;-66
2022/09/16 00:34:12;;;;;;;8.00;3.40;;;11.60;99.90;;;;;;5052125;28;20164;-66
2022/09/16 00:36:38;;;;;;;7.03;3.20;;;11.50;99.90;;;;;;5051916;28;20170;-66
2022/09/16 00:39:03;;;;;;;4.70;2.83;;;11.50;99.90;;;;;;5052037;28;20245;-66
2022/09/16 00:41:33;;;;;;;6.80;3.60;;;11.50;99.90;;;;;;5052152;28;20181;-66
2022/09/16 00:44:02;;;;;;;3.00;1.80;;;11.60;99.90;;;;;;5052126;28;20220;-66
2022/09/16 00:46:38;;;;;;;6.83;2.63;;;11.60;99.90;;;;;;5051800;28;20639;-66
2022/09/16 00:49:26;;;;;;;4.00;2.80;;;11.50;99.90;;;;;;5052135;28;20836;-66
2022/09/16 00:51:56;;;;;;;6.20;2.33;;;11.50;99.90;;;;;;5051899;28;20492;-67
2022/09/16 00:54:22;;;;;;;5.97;3.87;;;11.40;99.90;;;;;;5051854;28;20454;-66
2022/09/16 00:56:52;;;;;;;7.30;2.63;;;11.50;99.90;;;;;;5051757;28;20417;-66
2022/09/16 00:59:25;;;;;;;6.23;3.40;;;11.50;99.90;;;;;;5051877;28;20426;-67
2022/09/16 01:01:52;;;;;;;6.00;3.20;;;11.40;99.90;;;;;;5051801;28;20922;-67
2022/09/16 01:04:23;;;;;;;5.90;2.43;;;11.30;99.90;;;;;;5051633;28;20414;-67
2022/09/16 01:06:49;;;;;;;5.20;2.10;;;11.30;99.90;;;;;;5051724;28;20515;-66
2022/09/16 01:09:18;;;;;;;2.97;1.47;;;11.30;99.90;;;;;;5051527;28;20445;-66
2022/09/16 01:11:44;;;;;;;5.47;3.10;;;11.40;99.90;;;;;;5051513;28;20837;-66
2022/09/16 01:17:20;;;;;;;7.90;4.50;;;11.30;99.90;;;;;;5051822;28;20193;-66
2022/09/16 01:20:00;;;;;;;15.10;10.63;;;11.20;99.90;;;;;;5051520;28;20428;-66
2022/09/16 01:23:00;;;;;;;6.77;5.00;;;11.20;99.90;;;;;;5051608;28;20756;-66
2022/09/16 01:25:55;;;;;;;3.80;1.40;;;11.20;99.90;;;;;;5051381;28;20401;-66
2022/09/16 01:28:34;;;;;;;4.33;1.83;;;11.20;99.90;;;;;;5051305;28;20409;-66
2022/09/16 01:31:22;;;;;;;2.50;1.50;;;11.20;99.90;;;;;;5051626;28;20393;-67
2022/09/16 01:33:58;;;;;;;1.60;1.30;;;11.20;99.90;;;;;;5051490;28;20903;-66
2022/09/16 01:36:29;;;;;;;4.77;1.40;;;11.10;99.90;;;;;;5051261;28;20409;-66
2022/09/16 01:39:19;;;;;;;3.27;1.67;;;11.20;99.90;;;;;;5051280;28;20425;-66
2022/09/16 01:41:45;;;;;;;2.23;1.20;;;11.10;99.90;;;;;;5051576;28;21082;-65
2022/09/16 01:44:19;;;;;;;2.70;1.17;;;11.10;99.90;;;;;;5051404;28;20420;-66
2022/09/16 01:46:52;;;;;;;1.70;1.47;;;11.10;99.90;;;;;;5051229;28;20284;-67
2022/09/16 01:49:22;;;;;;;2.90;1.50;;;11.00;99.90;;;;;;5049784;28;20426;-67
2022/09/16 01:52:04;;;;;;;4.37;1.20;;;11.10;99.90;;;;;;5051621;28;20978;-66
2022/09/16 01:54:55;;;;;;;2.30;1.10;;;11.10;99.90;;;;;;5051475;28;20423;-66
2022/09/16 01:57:49;;;;;;;8.83;1.60;;;11.00;99.90;;;;;;5051557;28;21271;-67
2022/09/16 02:00:16;;;;;;;1.40;1.10;;;11.00;99.90;;;;;;5051361;28;20401;-67
2022/09/16 02:02:46;;;;;;;2.97;1.00;;;11.00;99.90;;;;;;5051139;28;20437;-67
2022/09/16 02:05:25;;;;;;;2.30;1.70;;;11.10;99.90;;;;;;5050814;28;20424;-66
2022/09/16 02:07:59;;;;;;;1.57;1.47;;;11.10;99.90;;;;;;5051012;28;20398;-66
2022/09/16 02:10:30;;;;;;;3.93;1.40;;;11.10;99.90;;;;;;5051631;28;20412;-66
2022/09/16 02:13:05;;;;;;;1.43;1.20;;;11.00;99.90;;;;;;5051164;28;20397;-66
2022/09/16 02:15:32;;;;;;;2.17;1.57;;;10.90;99.90;;;;;;5050947;28;20413;-66
2022/09/16 02:18:05;;;;;;;4.60;1.60;;;10.90;99.90;;;;;;5054507;28;21100;-65
2022/09/16 02:20:35;;;;;;;2.73;1.67;;;10.90;99.90;;;;;;5054716;28;20438;-66
2022/09/16 02:23:14;;;;;;;3.80;1.43;;;10.90;99.90;;;;;;5054583;28;20401;-66
2022/09/16 02:25:43;;;;;;;5.60;1.40;;;10.90;99.90;;;;;;5054347;28;20445;-66
2022/09/16 02:28:14;;;;;;;1.57;1.47;;;10.80;99.90;;;;;;5054325;28;20425;-66
2022/09/16 02:30:43;;;;;;;2.30;1.60;;;10.90;99.90;;;;;;5054686;28;20475;-66
2022/09/16 02:33:12;;;;;;;2.17;1.50;;;10.90;99.90;;;;;;5054456;28;20393;-66
2022/09/16 02:35:39;;;;;;;9.33;1.73;;;11.00;99.90;;;;;;5054334;28;20402;-66
2022/09/16 02:38:16;;;;;;;4.20;1.57;;;11.00;99.90;;;;;;5054319;28;20445;-67
2022/09/16 02:40:53;;;;;;;4.40;1.63;;;10.90;99.90;;;;;;5054379;28;20400;-66
2022/09/16 02:43:19;;;;;;;3.00;1.63;;;10.90;99.90;;;;;;5054491;28;20424;-66
2022/09/16 02:45:52;;;;;;;2.40;1.47;;;10.80;99.90;;;;;;5054152;28;20445;-66
2022/09/16 02:48:41;;;;;;;3.43;1.33;;;10.70;99.90;;;;;;5054451;28;20653;-67
2022/09/16 02:51:36;;;;;;;2.90;1.73;;;10.90;99.90;;;;;;5054121;28;20405;-67
2022/09/16 02:54:12;;;;;;;2.33;2.13;;;10.80;99.90;;;;;;5054211;28;20903;-67
2022/09/16 02:56:40;;;;;;;2.40;2.00;;;10.80;99.90;;;;;;5054343;28;20404;-68
2022/09/16 02:59:09;;;;;;;6.17;4.07;;;10.80;99.90;;;;;;5054276;28;20941;-67
2022/09/16 03:01:44;;;;;;;2.90;1.97;;;10.80;99.90;;;;;;5053996;28;20401;-67
2022/09/16 03:04:15;;;;;;;6.07;1.90;;;10.80;99.90;;;;;;5054020;28;20409;-67
2022/09/16 03:06:41;;;;;;;3.33;1.90;;;10.90;99.90;;;;;;5053702;28;20988;-67
2022/09/16 03:09:10;;;;;;;3.20;2.40;;;10.90;99.90;;;;;;5053800;28;20445;-67
2022/09/16 03:11:55;;;;;;;3.40;2.50;;;10.90;99.90;;;;;;5054208;28;20409;-67
2022/09/16 03:15:02;;;;;;;4.90;2.40;;;10.80;99.90;;;;;;5053864;28;20411;-67
2022/09/16 03:18:02;;;;;;;3.40;2.40;;;10.90;99.90;;;;;;5054182;28;20450;-67
2022/09/16 03:21:06;;;;;;;5.30;2.97;;;10.80;99.90;;;;;;5054002;28;20404;-69
2022/09/16 03:23:52;;;;;;;3.03;2.13;;;10.70;99.90;;;;;;5016453;28;20433;-67
2022/09/16 03:26:26;;;;;;;3.90;2.13;;;10.70;99.90;;;;;;5053480;28;20449;-67
2022/09/16 03:29:16;;;;;;;2.80;1.90;;;10.70;99.90;;;;;;5052840;28;20426;-66
2022/09/16 03:32:02;;;;;;;5.27;2.10;;;10.60;99.90;;;;;;5053870;28;20908;-66
2022/09/16 03:34:43;;;;;;;1.70;1.60;;;10.80;99.90;;;;;;5053605;28;20402;-67
2022/09/16 03:37:14;;;;;;;8.30;2.47;;;10.70;99.90;;;;;;5053646;28;20462;-66
2022/09/16 03:39:40;;;;;;;2.10;1.90;;;10.80;99.90;;;;;;5053462;28;20421;-66
2022/09/16 03:42:10;;;;;;;6.67;2.13;;;10.90;99.90;;;;;;5053613;28;20409;-66
2022/09/16 03:44:39;;;;;;;4.63;2.80;;;10.90;99.90;;;;;;5053348;28;20445;-66
2022/09/16 03:47:08;;;;;;;9.90;2.23;;;10.90;99.90;;;;;;5052887;28;20492;-67
2022/09/16 03:49:34;;;;;;;2.43;2.10;;;10.90;99.90;;;;;;5052883;28;20446;-67
2022/09/16 03:52:00;;;;;;;5.20;2.17;;;10.80;99.90;;;;;;5053025;28;20429;-67
2022/09/16 03:54:26;;;;;;;5.40;3.03;;;10.80;99.90;;;;;;5052844;28;20401;-66
2022/09/16 03:56:51;;;;;;;2.90;2.00;;;10.90;99.90;;;;;;5052710;28;20408;-66
2022/09/16 03:59:17;;;;;;;2.57;2.00;;;10.90;99.90;;;;;;5052766;28;20178;-66
2022/09/16 04:01:44;;;;;;;2.80;2.17;;;10.90;99.90;;;;;;5052813;28;20175;-66
2022/09/16 04:04:11;;;;;;;3.60;2.40;;;10.90;99.90;;;;;;5052719;28;20232;-67
2022/09/16 04:06:36;;;;;;;2.37;1.93;;;10.90;99.90;;;;;;5052605;28;20460;-67
2022/09/16 04:09:03;;;;;;;4.27;1.80;;;11.00;99.90;;;;;;5052659;28;20543;-67
2022/09/16 04:11:30;;;;;;;4.10;2.00;;;11.00;99.90;;;;;;5052716;28;20163;-67
2022/09/16 04:13:56;;;;;;;3.17;1.60;;;11.00;99.90;;;;;;5052750;28;20772;-67
2022/09/16 04:16:22;;;;;;;4.73;2.47;;;10.90;99.90;;;;;;5052443;28;20405;-67
2022/09/16 04:18:48;;;;;;;2.00;1.90;;;10.90;99.90;;;;;;5052538;28;20183;-67
2022/09/16 04:21:14;;;;;;;5.37;2.40;;;10.90;99.90;;;;;;5052462;28;20174;-67
2022/09/16 04:23:39;;;;;;;4.83;2.67;;;10.90;99.90;;;;;;5052465;28;20895;-68
2022/09/16 04:26:05;;;;;;;3.63;2.00;;;10.90;99.90;;;;;;5052341;28;20480;-67
2022/09/16 04:28:32;;;;;;;5.20;2.40;;;10.90;99.90;;;;;;5052392;28;20719;-67
2022/09/16 04:31:06;;;;;;;2.73;2.20;;;10.90;99.90;;;;;;5052390;28;20164;-67
2022/09/16 04:33:34;;;;;;;5.13;2.80;;;10.80;99.90;;;;;;5052423;28;20408;-67
2022/09/16 04:36:11;;;;;;;3.73;2.20;;;10.80;99.90;;;;;;5052190;28;20900;-67
2022/09/16 04:38:38;;;;;;;2.20;2.00;;;10.80;99.90;;;;;;5051784;28;20957;-67
2022/09/16 04:41:09;;;;;;;2.20;2.00;;;10.80;99.90;;;;;;5052167;28;20818;-67
2022/09/16 04:43:35;;;;;;;8.23;2.50;;;10.80;99.90;;;;;;5052233;28;20789;-67
2022/09/16 04:46:01;;;;;;;4.50;2.50;;;10.80;99.90;;;;;;5051772;28;20559;-67
2022/09/16 04:48:28;;;;;;;3.10;2.20;;;10.80;99.90;;;;;;5052125;28;20504;-67
2022/09/16 04:50:54;;;;;;;5.13;2.47;;;10.80;99.90;;;;;;5052005;28;20966;-67
2022/09/16 04:53:20;;;;;;;2.47;1.90;;;10.70;99.90;;;;;;5052092;28;20398;-67
2022/09/16 04:55:46;;;;;;;2.60;1.87;;;10.70;99.90;;;;;;5051821;28;20436;-67
2022/09/16 04:58:13;;;;;;;3.23;2.63;;;10.80;99.90;;;;;;5051797;28;20460;-67
2022/09/16 05:00:39;;;;;;;2.73;1.80;;;10.80;99.90;;;;;;5051859;28;20493;-67
2022/09/16 05:03:04;;;;;;;7.17;2.30;;;10.80;99.90;;;;;;5051975;28;20848;-67
2022/09/16 05:05:30;;;;;;;2.43;2.03;;;10.80;99.90;;;;;;5051488;28;20437;-67
2022/09/16 05:07:55;;;;;;;1.70;1.60;;;10.80;99.90;;;;;;5051637;28;20246;-67
2022/09/16 05:10:21;;;;;;;3.67;1.80;;;10.90;99.90;;;;;;5051946;28;20163;-66
2022/09/16 05:12:51;;;;;;;4.70;2.40;;;10.90;99.90;;;;;;5051711;28;20217;-67
2022/09/16 05:15:16;;;;;;;1.90;1.60;;;10.90;99.90;;;;;;5051604;28;20163;-67
2022/09/16 05:17:42;;;;;;;2.47;1.70;;;10.90;99.90;;;;;;5051574;28;20398;-67
2022/09/16 05:20:08;;;;;;;5.27;1.83;;;10.90;99.90;;;;;;5051701;28;20189;-67
2022/09/16 05:22:33;;;;;;;4.43;1.83;;;10.80;99.90;;;;;;5053233;28;20167;-68
2022/09/16 05:24:59;;;;;;;5.50;1.70;;;10.90;99.90;;;;;;5051862;28;20405;-67
2022/09/16 05:27:26;;;;;;;2.97;1.80;;;10.90;99.90;;;;;;5051441;28;20198;-67
2022/09/16 05:29:52;;;;;;;1.73;1.40;;;10.90;99.90;;;;;;5051655;28;20194;-67
2022/09/16 05:32:17;;;;;;;2.73;2.20;;;11.00;99.90;;;;;;5051640;28;20413;-67
2022/09/16 05:34:43;;;;;;;5.80;1.93;;;11.10;99.90;;;;;;5051390;28;20644;-66
2022/09/16 05:37:08;;;;;;;5.57;1.83;;;11.10;99.90;;;;;;5051514;28;20171;-67
2022/09/16 05:39:34;;;;;;;3.63;2.03;;;11.20;99.90;;;;;;5052576;28;20187;-68
2022/09/16 05:42:00;;;;;;;2.20;1.60;;;11.20;99.90;;;;;;5051698;28;20633;-65
2022/09/16 05:44:26;;;;;;;2.47;1.40;;;11.30;99.90;;;;;;5051438;28;20178;-66
2022/09/16 05:46:52;;;;;;;1.73;1.63;;;11.40;99.90;;;;;;5051334;28;20195;-66
2022/09/16 05:49:19;;;;;;;3.27;2.03;;;11.40;99.90;;;;;;5051488;28;20422;-66
2022/09/16 05:51:46;;;;;;;1.60;1.37;;;11.50;99.90;;;;;;5053229;28;20409;-65
2022/09/16 05:54:11;;;;;;;4.97;1.67;;;11.50;99.90;;;;;;5055134;28;20401;-66
2022/09/16 05:56:37;;;;;;;2.83;1.60;;;11.50;99.90;;;;;;5054948;28;20903;-66
2022/09/16 05:59:03;;;;;;;2.43;2.07;;;11.70;99.90;;;;;;5055057;28;20191;-66
2022/09/16 06:01:31;;;;;;;6.43;1.87;;;11.80;99.90;;;;;;5055055;28;20779;-66
2022/09/16 06:03:59;;;;;;;9.50;2.80;;;11.80;99.90;;;;;;5054981;28;20170;-67
2022/09/16 06:06:36;;;;;;;4.70;1.70;;;12.10;99.90;;;;;;5054663;28;20449;-66
2022/09/16 06:09:10;;;;;;;1.73;1.50;;;12.00;99.90;;;;;;5054737;28;20437;-66
2022/09/16 06:11:40;;;;;;;2.30;1.57;;;11.90;99.90;;;;;;5054973;28;20535;-67
2022/09/16 06:14:06;;;;;;;4.50;1.90;;;12.10;99.90;;;;;;5054744;28;20435;-67
2022/09/16 06:16:32;;;;;;;5.23;2.07;;;11.90;99.90;;;;;;5054374;28;20417;-65
2022/09/16 06:19:04;;;;;;;1.67;1.20;;;12.00;99.90;;;;;;5053072;28;20531;-66
2022/09/16 06:21:29;;;;;;;1.80;1.40;;;12.00;99.90;;;;;;5054481;28;20439;-68
2022/09/16 06:23:56;;;;;;;3.43;1.60;;;12.30;99.90;;;;;;5053871;28;20429;-67
2022/09/16 06:26:24;;;;;;;4.30;1.60;;;12.90;99.90;;;;;;5054482;28;20195;-67
2022/09/16 06:28:50;;;;;;;3.13;1.60;;;12.60;99.90;;;;;;5054125;28;20935;-66
2022/09/16 06:31:24;;;;;;;1.80;1.27;;;12.70;99.90;;;;;;5054425;28;20438;-66
2022/09/16 06:33:51;;;;;;;1.90;1.63;;;12.70;99.90;;;;;;5054401;28;20412;-65
2022/09/16 06:36:21;;;;;;;6.43;3.33;;;12.50;99.90;;;;;;5054153;28;20440;-66
2022/09/16 06:38:47;;;;;;;9.47;3.77;;;12.40;99.90;;;;;;5054210;28;20965;-67
2022/09/16 06:41:14;;;;;;;2.27;1.80;;;12.70;99.90;;;;;;5054201;28;20463;-67
2022/09/16 06:43:41;;;;;;;5.67;4.40;;;13.10;99.90;;;;;;5054179;28;20515;-66
2022/09/16 06:46:12;;;;;;;5.90;2.30;;;13.30;99.90;;;;;;5053993;28;20442;-67
2022/09/16 06:48:39;;;;;;;3.73;1.97;;;13.50;99.90;;;;;;5054098;28;20508;-67
2022/09/16 06:51:08;;;;;;;5.90;2.60;;;13.80;99.90;;;;;;5054062;28;20997;-67
2022/09/16 06:53:33;;;;;;;3.63;2.10;;;13.90;99.90;;;;;;5053960;28;20457;-67
2022/09/16 06:56:01;;;;;;;2.43;1.43;;;14.10;99.90;;;;;;5053770;28;20415;-67
2022/09/16 06:58:28;;;;;;;1.67;1.20;;;14.00;99.90;;;;;;5053710;28;20201;-66
2022/09/16 07:00:54;;;;;;;5.60;1.70;;;14.40;99.90;;;;;;5054107;28;20448;-67
2022/09/16 07:03:20;;;;;;;5.13;1.90;;;14.10;99.90;;;;;;5053643;28;20406;-67
2022/09/16 07:06:00;;;;;;;1.40;1.20;;;14.30;99.90;;;;;;5053558;28;20451;-67
2022/09/16 07:08:27;;;;;;;1.87;1.60;;;14.30;99.90;;;;;;5054033;28;20200;-66
2022/09/16 07:11:01;;;;;;;3.10;1.70;;;14.60;99.90;;;;;;5053895;28;20439;-67
2022/09/16 07:13:27;;;;;;;3.60;1.77;;;15.10;99.90;;;;;;5053901;28;20412;-67
2022/09/16 07:15:53;;;;;;;1.70;1.37;;;15.10;99.90;;;;;;5053362;28;20413;-67
2022/09/16 07:18:19;;;;;;;4.17;1.83;;;14.70;99.90;;;;;;5053591;28;20432;-67
2022/09/16 07:20:45;;;;;;;1.27;1.17;;;14.60;99.90;;;;;;5053570;28;20179;-67
2022/09/16 07:23:10;;;;;;;3.00;1.13;;;14.50;99.90;;;;;;5053325;28;20413;-67
2022/09/16 07:25:36;;;;;;;2.70;1.40;;;14.20;99.90;;;;;;5052927;28;20254;-67
2022/09/16 07:28:02;;;;;;;2.83;1.13;;;14.60;99.90;;;;;;5052871;28;20194;-66
2022/09/16 07:30:29;;;;;;;1.40;1.13;;;15.00;99.90;;;;;;5052616;28;20652;-67
2022/09/16 07:32:54;;;;;;;2.87;1.63;;;16.20;99.90;;;;;;5053346;28;20266;-67
2022/09/16 07:35:20;;;;;;;1.77;1.00;;;16.40;99.90;;;;;;5053418;28;20493;-68
2022/09/16 07:37:46;;;;;;;1.37;1.10;;;16.50;99.90;;;;;;5053073;28;20434;-67
2022/09/16 07:40:12;;;;;;;1.27;0.93;;;16.20;99.90;;;;;;5053306;28;20225;-67
2022/09/16 07:42:38;;;;;;;2.57;1.30;;;16.60;99.90;;;;;;5053104;28;20592;-67
2022/09/16 07:45:05;;;;;;;1.60;1.30;;;16.00;99.90;;;;;;5052706;28;20457;-67
2022/09/16 07:47:30;;;;;;;2.10;1.00;;;17.00;99.90;;;;;;5052776;28;20467;-67
2022/09/16 07:49:56;;;;;;;2.20;1.33;;;16.40;99.90;;;;;;5052822;28;20419;-67
2022/09/16 07:52:24;;;;;;;2.97;1.50;;;17.30;99.90;;;;;;5052609;28;20258;-67
2022/09/16 07:54:50;;;;;;;2.10;1.33;;;18.00;99.90;;;;;;5053147;28;20269;-67
2022/09/16 07:57:17;;;;;;;2.10;1.60;;;18.10;99.90;;;;;;5052985;28;20498;-67
2022/09/16 07:59:42;;;;;;;2.87;1.10;;;17.20;99.90;;;;;;5052648;28;20736;-67
2022/09/16 08:02:08;;;;;;;2.00;1.10;;;16.40;99.90;;;;;;5052933;28;20495;-67
2022/09/16 08:04:34;;;;;;;0.80;0.80;;;16.40;99.90;;;;;;5052706;28;20641;-67
2022/09/16 08:06:59;;;;;;;3.43;0.90;;;15.80;99.90;;;;;;5052451;28;20467;-66
2022/09/16 08:09:25;;;;;;;1.20;0.80;;;16.30;99.90;;;;;;5052885;28;20196;-67
2022/09/16 08:11:50;;;;;;;1.20;1.10;;;16.80;99.90;;;;;;5052573;28;20175;-67
2022/09/16 08:14:16;;;;;;;4.60;1.17;;;16.30;99.90;;;;;;5051801;28;20807;-68
2022/09/16 08:16:41;;;;;;;2.00;1.40;;;16.30;99.90;;;;;;5052329;28;20180;-67
2022/09/16 08:19:08;;;;;;;1.70;1.00;;;16.10;99.90;;;;;;5052374;28;20202;-67
2022/09/16 08:21:34;;;;;;;2.63;2.10;;;15.80;99.90;;;;;;5052507;28;20247;-66
2022/09/16 08:23:59;;;;;;;2.07;1.07;;;16.00;99.90;;;;;;5052303;28;20450;-66
2022/09/16 08:26:25;;;;;;;2.43;0.80;;;15.70;99.90;;;;;;5051874;28;20196;-66
2022/09/16 08:28:51;;;;;;;2.00;1.00;;;15.80;99.90;;;;;;5041594;28;20227;-66
2022/09/16 08:31:18;;;;;;;2.90;0.90;;;15.80;99.90;;;;;;5039277;28;20484;-66
2022/09/16 08:33:44;;;;;;;1.37;0.80;;;15.60;99.90;;;;;;5052175;28;20169;-66
2022/09/16 08:36:18;;;;;;;2.47;0.90;;;15.70;99.90;;;;;;5051920;28;20528;-66
2022/09/16 08:38:44;;;;;;;2.03;1.00;;;15.50;99.90;;;;;;5052410;28;20428;-67
2022/09/16 08:41:12;;;;;;;3.07;0.90;;;15.70;99.90;;;;;;5052015;28;20413;-67
2022/09/16 08:43:44;;;;;;;1.77;0.80;;;16.10;99.90;;;;;;5051975;28;20419;-67
2022/09/16 08:46:24;;;;;;;2.20;0.93;;;15.60;99.90;;;;;;5051742;28;20819;-67
2022/09/16 08:49:01;;;;;;;1.50;1.00;;;15.90;99.90;;;;;;5052250;28;20462;-67
2022/09/16 08:51:27;;;;;;;2.10;1.33;;;16.00;99.90;;;;;;5051909;28;20402;-66
2022/09/16 08:54:27;;;;;;;1.20;0.80;;;15.40;99.90;;;;;;5051654;28;20499;-66
2022/09/16 08:57:00;;;;;;;1.87;1.33;;;15.70;99.90;;;;;;5051409;28;20179;-67
2022/09/16 08:59:29;;;;;;;2.20;0.80;;;16.20;99.90;;;;;;5051654;28;20421;-67
2022/09/16 09:02:36;;;;;;;1.23;0.90;;;16.20;99.90;;;;;;5051606;28;20837;-67
2022/09/16 09:05:23;;;;;;;2.20;0.90;;;16.90;99.90;;;;;;5050718;28;20420;-66
2022/09/16 09:08:06;;;;;;;2.80;0.90;;;16.30;99.90;;;;;;5040292;28;20418;-67
2022/09/16 09:10:44;;;;;;;2.20;1.10;;;16.50;99.90;;;;;;5051273;28;20824;-70
2022/09/16 09:13:35;;;;;;;2.23;1.00;;;16.20;99.90;;;;;;5051500;28;20386;-66
2022/09/16 09:16:22;;;;;;;1.97;1.33;;;16.50;99.90;;;;;;5051778;28;20403;-67
2022/09/16 09:19:01;;;;;;;3.63;1.00;;;16.30;99.90;;;;;;5051341;28;20452;-66
2022/09/16 09:21:55;;;;;;;2.97;0.90;;;17.00;99.90;;;;;;5051571;28;20412;-66
2022/09/16 09:24:34;;;;;;;3.93;2.73;;;17.60;99.90;;;;;;5051379;28;20507;-67
2022/09/16 09:27:20;;;;;;;4.53;1.80;;;17.10;99.90;;;;;;5055038;28;20458;-67
2022/09/16 09:30:06;;;;;;;2.70;0.97;;;17.20;99.90;;;;;;5046537;28;20441;-67
2022/09/16 09:33:02;;;;;;;2.67;1.17;;;17.30;99.90;;;;;;5055435;28;20954;-68
2022/09/16 09:35:48;;;;;;;1.23;0.80;;;17.20;99.90;;;;;;5055179;28;20406;-67
2022/09/16 09:38:31;;;;;;;2.40;1.00;;;17.10;99.90;;;;;;5055405;28;20468;-67
2022/09/16 09:41:04;;;;;;;4.00;1.20;;;17.30;99.90;;;;;;5055366;28;20398;-67
2022/09/16 09:43:41;;;;;;;2.47;1.07;;;17.50;99.90;;;;;;5055870;28;20401;-68
2022/09/16 09:46:09;;;;;;;2.00;0.90;;;17.90;99.90;;;;;;5055178;28;20956;-67
2022/09/16 09:49:13;;;;;;;4.97;1.00;;;17.40;99.90;;;;;;5055685;28;20975;-67
2022/09/16 09:51:55;;;;;;;4.13;1.10;;;17.10;99.90;;;;;;5055319;28;20470;-67
2022/09/16 09:54:33;;;;;;;5.20;1.40;;;16.40;99.90;;;;;;5055048;28;20418;-67
2022/09/16 09:57:07;;;;;;;4.40;1.00;;;16.60;99.90;;;;;;5054958;28;20414;-67
2022/09/16 10:00:07;;;;;;;5.10;1.63;;;16.20;99.90;;;;;;5055264;28;20429;-67
2022/09/16 10:02:34;;;;;;;2.70;1.60;;;16.60;99.90;;;;;;5054877;28;20440;-67
2022/09/16 10:05:00;;;;;;;2.37;1.00;;;16.60;99.90;;;;;;5054227;28;20412;-67
2022/09/16 10:07:27;;;;;;;3.13;1.33;;;16.70;99.90;;;;;;5055033;28;20452;-67
2022/09/16 10:09:55;;;;;;;2.03;0.83;;;16.80;99.90;;;;;;5054958;28;20505;-73
2022/09/16 10:12:32;;;;;;;2.63;1.27;;;16.80;99.90;;;;;;5054976;28;20442;-67
2022/09/16 10:14:59;;;;;;;2.63;1.00;;;16.90;99.90;;;;;;5054578;28;20911;-67
2022/09/16 10:17:26;;;;;;;3.00;1.00;;;17.40;99.90;;;;;;5054883;28;20413;-67
2022/09/16 10:20:04;;;;;;;3.17;1.10;;;17.60;99.90;;;;;;5054891;28;20432;-67
2022/09/16 10:22:32;;;;;;;4.07;1.03;;;17.80;99.90;;;;;;5054197;28;20428;-67
2022/09/16 10:25:20;;;;;;;3.30;1.20;;;17.20;99.90;;;;;;5054284;28;20442;-67
2022/09/16 10:27:55;;;;;;;5.33;0.93;;;17.00;99.90;;;;;;5054151;28;20457;-67
2022/09/16 10:30:21;;;;;;;2.73;1.07;;;16.90;99.90;;;;;;5053903;28;20501;-67
2022/09/16 10:32:58;;;;;;;3.83;1.17;;;16.70;99.90;;;;;;5054403;28;20709;-67
2022/09/16 10:35:26;;;;;;;4.53;1.10;;;17.00;99.90;;;;;;5054183;28;20446;-67
2022/09/16 10:38:04;;;;;;;1.77;0.87;;;16.70;99.90;;;;;;5053558;28;20405;-66
2022/09/16 10:40:30;;;;;;;7.70;1.47;;;16.20;99.90;;;;;;5054264;28;20423;-66
2022/09/16 10:43:02;;;;;;;3.27;1.23;;;16.30;99.90;;;;;;5053916;28;21210;-66
2022/09/16 10:45:30;;;;;;;4.20;1.70;;;17.00;99.90;;;;;;5054156;28;20444;-66
2022/09/16 10:47:59;;;;;;;4.60;1.60;;;17.10;99.90;;;;;;5053906;28;20772;-67
2022/09/16 10:50:25;;;;;;;3.90;0.97;;;17.10;99.90;;;;;;5053815;28;20398;-67
2022/09/16 10:52:51;;;;;;;3.77;1.97;;;17.50;99.90;;;;;;5054178;28;20402;-67
2022/09/16 10:55:24;;;;;;;8.20;1.60;;;17.50;99.90;;;;;;5053554;28;20520;-67
2022/09/16 10:57:50;;;;;;;1.10;1.00;;;17.50;99.90;;;;;;5036109;28;20424;-67
2022/09/16 11:00:23;;;;;;;2.37;1.00;;;17.80;99.90;;;;;;5053722;28;20799;-66
2022/09/16 11:03:33;;;;;;;2.77;0.97;;;17.60;99.90;;;;;;5053631;28;20409;-67
2022/09/16 11:06:26;;;;;;;5.63;1.40;;;17.80;99.90;;;;;;5033600;28;20480;-67
2022/09/16 11:09:10;;;;;;;1.93;0.70;;;18.20;99.90;;;;;;5033508;28;20439;-66
2022/09/16 11:12:17;;;;;;;2.90;1.00;;;18.60;99.90;;;;;;5033705;28;20977;-66
2022/09/16 11:15:01;;;;;;;2.10;0.90;;;18.60;99.90;;;;;;5033985;28;20730;-67
2022/09/16 11:18:04;;;;;;;3.20;1.00;;;17.90;99.90;;;;;;5033543;28;20402;-66
2022/09/16 11:20:48;;;;;;;3.63;0.90;;;17.70;99.90;;;;;;5033522;28;20407;-66
2022/09/16 11:23:26;;;;;;;1.17;1.07;;;17.60;99.90;;;;;;5043987;28;20779;-66
2022/09/16 11:26:23;;;;;;;2.80;1.43;;;17.50;99.90;;;;;;5065144;28;21080;-66
2022/09/16 11:29:18;;;;;;;4.00;1.93;;;17.40;99.90;;;;;;5051457;28;20570;-66
2022/09/16 11:32:08;;;;;;;3.27;2.37;;;17.60;99.90;;;;;;5053055;28;20406;-66
2022/09/16 11:35:09;;;;;;;5.40;2.90;;;17.40;99.90;;;;;;5053124;28;20442;-67
2022/09/16 11:37:39;;;;;;;3.73;1.37;;;17.60;99.90;;;;;;5053159;28;20401;-67
2022/09/16 11:40:18;;;;;;;3.10;1.30;;;17.30;99.90;;;;;;5053107;28;20439;-66
2022/09/16 11:43:34;;;;;;;2.37;1.20;;;17.30;99.90;;;;;;5052797;28;20419;-69
2022/09/16 11:46:17;;;;;;;3.17;1.33;;;17.60;99.90;;;;;;5052524;28;20466;-66
2022/09/16 11:49:16;;;;;;;4.40;1.30;;;17.80;99.90;;;;;;5051913;28;20519;-66
2022/09/16 11:52:00;;;;;;;3.00;1.60;;;18.00;99.90;;;;;;5052955;28;20474;-66
2022/09/16 11:54:59;;;;;;;4.00;1.13;;;18.00;99.90;;;;;;5052773;28;20395;-66
2022/09/16 11:57:29;;;;;;;1.60;0.80;;;17.80;99.90;;;;;;5058549;28;20406;-66
2022/09/16 12:00:15;;;;;;;1.00;0.90;;;17.20;99.20;;;;;;5072737;28;20435;-67
2022/09/16 12:02:48;;;;;;;2.73;1.23;;;17.50;99.90;;;;;;5070109;28;20773;-67
2022/09/16 12:05:23;;;;;;;7.07;1.40;;;17.40;99.90;;;;;;5052401;28;20454;-66
2022/09/16 12:08:04;;;;;;;1.57;0.83;;;17.30;99.90;;;;;;5052338;28;20463;-66
2022/09/16 12:10:36;;;;;;;3.87;0.97;;;17.00;99.90;;;;;;5052563;28;20401;-67
2022/09/16 12:13:14;;;;;;;2.90;1.23;;;17.10;99.90;;;;;;5052510;28;20386;-66
2022/09/16 12:15:49;;;;;;;2.70;1.00;;;17.40;99.90;;;;;;5052128;28;20502;-66
2022/09/16 12:18:20;;;;;;;3.83;1.60;;;17.80;99.90;;;;;;5052108;28;20428;-67
2022/09/16 12:20:50;;;;;;;4.00;1.13;;;18.00;99.60;;;;;;5052224;28;20401;-67
2022/09/16 12:23:26;;;;;;;2.13;1.93;;;17.90;98.90;;;;;;5052431;28;20398;-66
2022/09/16 12:26:09;;;;;;;3.63;1.50;;;18.00;98.90;;;;;;5039716;28;20497;-67
2022/09/16 12:28:46;;;;;;;3.47;1.60;;;17.90;98.60;;;;;;5048688;28;20527;-67
2022/09/16 12:31:32;;;;;;;6.03;1.10;;;17.80;97.50;;;;;;5052479;28;20756;-66
2022/09/16 12:34:04;;;;;;;3.17;0.83;;;17.60;97.70;;;;;;5052598;28;20404;-67
2022/09/16 12:36:36;;;;;;;3.13;1.40;;;17.60;95.30;;;;;;5052160;28;20445;-66
2022/09/16 12:39:02;;;;;;;1.20;0.87;;;17.50;95.30;;;;;;5052317;28;20436;-67
2022/09/16 12:41:30;;;;;;;2.70;1.67;;;17.70;95.50;;;;;;5052099;28;20396;-67
2022/09/16 12:44:07;;;;;;;2.20;1.00;;;17.70;96.60;;;;;;5051873;28;20600;-67
2022/09/16 12:46:55;;;;;;;2.20;0.97;;;17.50;96.60;;;;;;5051801;28;20494;-66
2022/09/16 12:49:52;;;;;;;2.70;1.20;;;17.20;96.60;;;;;;5051798;28;20424;-66
2022/09/16 12:52:33;;;;;;;2.57;1.10;;;17.30;97.00;;;;;;5051690;28;20409;-67
2022/09/16 12:55:51;;;;;;;3.03;1.10;;;17.30;96.60;;;;;;5051745;28;20435;-66
2022/09/16 12:58:36;;;;;;;1.53;1.13;;;17.50;96.10;;;;;;4980368;28;20440;-66
2022/09/16 13:01:19;;;;;;;3.07;0.90;;;17.50;96.80;;;;;;5051618;28;20411;-67
2022/09/16 13:03:52;;;;;;;1.70;1.07;;;17.40;96.90;;;;;;5051678;28;20396;-66
2022/09/16 13:06:32;;;;;;;3.40;1.60;;;17.70;96.40;;;;;;5051472;28;20930;-67
2022/09/16 13:09:14;;;;;;;3.03;1.67;;;17.80;95.70;;;;;;5051557;28;20910;-66
2022/09/16 13:11:40;;;;;;;4.40;1.83;;;17.70;95.50;;;;;;5051639;28;20406;-67
2022/09/16 13:14:23;;;;;;;3.40;1.60;;;17.80;95.50;;;;;;5051474;28;20726;-66
2022/09/16 13:16:56;;;;;;;2.73;1.10;;;17.90;95.30;;;;;;5051769;28;20408;-67
2022/09/16 13:19:22;;;;;;;1.40;1.30;;;17.80;94.50;;;;;;5051566;28;20503;-67
2022/09/16 13:21:54;;;;;;;4.50;0.97;;;17.70;94.70;;;;;;5051677;28;20407;-66